EJU79PK LIMC-LIBD
Flight info
| Callsign | EJU79PK |
|---|---|
| Flight time | 1h 20m |
| Altitude | 35000 |
| Route | VAKON DCT IBUPU DCT NISIL DCT LUMAV DCT RUPAX DCT ALJUB DCT EKKEF DCT PERAV |
| Aircraft | A320/M-SDE2E3FGHIJ1RWXYZ/LB1 |
Departure
| Time | 2026-04-23 13:31 |
|---|---|
| Airport | Milan Malpensa International Airport (LIMC) |
Arrival
| Time | 2026-04-23 14:51 |
|---|---|
| Airport | Bari Karol Wojtyła International Airport (LIBD) |
| Time | Latitude | Longitude | Altitude | Speed | Heading |
|---|---|---|---|---|---|
| 2026-04-23 13:00 | 45.64739 | 8.72141 | 736 ft | 0 kts | 38° |
| 2026-04-23 13:12 | 45.64738 | 8.72141 | 736 ft | 0 kts | 38° |
| 2026-04-23 13:18 | 45.64738 | 8.72140 | 736 ft | 2 kts | 38° |
| 2026-04-23 13:19 | 45.64718 | 8.72118 | 736 ft | 4 kts | 42° |
| 2026-04-23 13:19 | 45.64704 | 8.72091 | 734 ft | 4 kts | 97° |
| 2026-04-23 13:19 | 45.64709 | 8.72066 | 734 ft | 4 kts | 131° |
| 2026-04-23 13:19 | 45.64730 | 8.72052 | 734 ft | 4 kts | 160° |
| 2026-04-23 13:20 | 45.64728 | 8.72053 | 735 ft | 4 kts | 156° |
| 2026-04-23 13:20 | 45.64703 | 8.72064 | 734 ft | 4 kts | 168° |
| 2026-04-23 13:20 | 45.64694 | 8.72066 | 734 ft | 0 kts | 169° |
| 2026-04-23 13:22 | 45.64663 | 8.72074 | 736 ft | 9 kts | 169° |
| 2026-04-23 13:22 | 45.64572 | 8.72099 | 736 ft | 15 kts | 169° |
| 2026-04-23 13:23 | 45.64472 | 8.72129 | 736 ft | 12 kts | 161° |
| 2026-04-23 13:23 | 45.64424 | 8.72212 | 734 ft | 11 kts | 103° |
| 2026-04-23 13:23 | 45.64432 | 8.72312 | 736 ft | 10 kts | 79° |
| 2026-04-23 13:23 | 45.64435 | 8.72401 | 736 ft | 8 kts | 117° |
| 2026-04-23 13:24 | 45.64389 | 8.72433 | 735 ft | 7 kts | 167° |
| 2026-04-23 13:24 | 45.64327 | 8.72451 | 736 ft | 12 kts | 169° |
| 2026-04-23 13:24 | 45.64243 | 8.72475 | 736 ft | 13 kts | 169° |
| 2026-04-23 13:24 | 45.64153 | 8.72501 | 736 ft | 14 kts | 169° |
| 2026-04-23 13:25 | 45.64049 | 8.72534 | 736 ft | 16 kts | 163° |
| 2026-04-23 13:25 | 45.63930 | 8.72571 | 736 ft | 19 kts | 169° |
| 2026-04-23 13:25 | 45.63798 | 8.72608 | 735 ft | 20 kts | 168° |
| 2026-04-23 13:25 | 45.63660 | 8.72647 | 736 ft | 20 kts | 169° |
| 2026-04-23 13:26 | 45.63525 | 8.72682 | 736 ft | 19 kts | 169° |
| 2026-04-23 13:26 | 45.63394 | 8.72719 | 736 ft | 19 kts | 169° |
| 2026-04-23 13:26 | 45.63266 | 8.72754 | 736 ft | 18 kts | 169° |
| 2026-04-23 13:26 | 45.63138 | 8.72790 | 735 ft | 19 kts | 169° |
| 2026-04-23 13:27 | 45.63002 | 8.72827 | 736 ft | 20 kts | 169° |
| 2026-04-23 13:27 | 45.62859 | 8.72866 | 736 ft | 21 kts | 169° |
| 2026-04-23 13:27 | 45.62710 | 8.72907 | 735 ft | 22 kts | 169° |
| 2026-04-23 13:27 | 45.62556 | 8.72949 | 737 ft | 23 kts | 169° |
| 2026-04-23 13:28 | 45.62396 | 8.72993 | 737 ft | 24 kts | 168° |
| 2026-04-23 13:28 | 45.62232 | 8.73039 | 735 ft | 24 kts | 168° |
| 2026-04-23 13:28 | 45.62064 | 8.73085 | 737 ft | 25 kts | 169° |
| 2026-04-23 13:28 | 45.61897 | 8.73130 | 736 ft | 21 kts | 169° |
| 2026-04-23 13:29 | 45.61774 | 8.73172 | 735 ft | 16 kts | 155° |
| 2026-04-23 13:29 | 45.61703 | 8.73284 | 737 ft | 15 kts | 124° |
| 2026-04-23 13:29 | 45.61647 | 8.73403 | 737 ft | 13 kts | 124° |
| 2026-04-23 13:29 | 45.61599 | 8.73508 | 737 ft | 13 kts | 117° |
| 2026-04-23 13:30 | 45.61588 | 8.73638 | 737 ft | 12 kts | 80° |
| 2026-04-23 13:30 | 45.61628 | 8.73730 | 737 ft | 11 kts | 15° |
| 2026-04-23 13:30 | 45.61732 | 8.73705 | 737 ft | 32 kts | 348° |
| 2026-04-23 13:30 | 45.62205 | 8.73575 | 738 ft | 103 kts | 349° |
| 2026-04-23 13:31 | 45.63096 | 8.73327 | 735 ft | 156 kts | 349° |
| 2026-04-23 13:31 | 45.64280 | 8.72997 | 988 ft | 178 kts | 347° |
| 2026-04-23 13:31 | 45.65514 | 8.72806 | 1685 ft | 180 kts | 354° |
| 2026-04-23 13:31 | 45.66784 | 8.72848 | 2236 ft | 191 kts | 16° |
| 2026-04-23 13:32 | 45.67952 | 8.73848 | 2601 ft | 207 kts | 50° |
| 2026-04-23 13:32 | 45.68665 | 8.75674 | 3000 ft | 216 kts | 72° |
| 2026-04-23 13:32 | 45.69142 | 8.77749 | 3650 ft | 221 kts | 73° |
| 2026-04-23 13:32 | 45.69788 | 8.79716 | 4497 ft | 218 kts | 53° |
| 2026-04-23 13:33 | 45.70859 | 8.81330 | 5063 ft | 230 kts | 38° |
| 2026-04-23 13:33 | 45.72015 | 8.82912 | 5831 ft | 234 kts | 56° |
| 2026-04-23 13:33 | 45.72524 | 8.85123 | 6633 ft | 240 kts | 87° |
| 2026-04-23 13:33 | 45.72094 | 8.87446 | 7355 ft | 249 kts | 120° |
| 2026-04-23 13:34 | 45.71115 | 8.89580 | 7825 ft | 267 kts | 115° |
| 2026-04-23 13:34 | 45.70404 | 8.92109 | 8338 ft | 279 kts | 105° |
| 2026-04-23 13:34 | 45.69861 | 8.94801 | 9109 ft | 283 kts | 102° |
| 2026-04-23 13:34 | 45.69370 | 8.97543 | 9925 ft | 286 kts | 102° |
| 2026-04-23 13:35 | 45.69045 | 8.99377 | 10436 ft | 289 kts | 102° |
| 2026-04-23 13:35 | 45.68525 | 9.02252 | 10743 ft | 310 kts | 103° |
| 2026-04-23 13:35 | 45.67943 | 9.05323 | 11107 ft | 327 kts | 104° |
| 2026-04-23 13:35 | 45.67314 | 9.08476 | 11750 ft | 332 kts | 104° |
| 2026-04-23 13:36 | 45.66655 | 9.11666 | 12501 ft | 335 kts | 104° |
| 2026-04-23 13:36 | 45.65980 | 9.14869 | 13241 ft | 338 kts | 104° |
| 2026-04-23 13:36 | 45.65295 | 9.18101 | 13960 ft | 341 kts | 104° |
| 2026-04-23 13:36 | 45.64604 | 9.21359 | 14585 ft | 344 kts | 104° |
| 2026-04-23 13:37 | 45.63746 | 9.24572 | 15187 ft | 349 kts | 111° |
| 2026-04-23 13:37 | 45.62722 | 9.27735 | 15813 ft | 352 kts | 111° |
| 2026-04-23 13:37 | 45.61671 | 9.30921 | 16439 ft | 356 kts | 112° |
| 2026-04-23 13:37 | 45.60601 | 9.34122 | 17030 ft | 359 kts | 112° |
| 2026-04-23 13:38 | 45.59519 | 9.37348 | 17636 ft | 362 kts | 112° |
| 2026-04-23 13:38 | 45.58423 | 9.40608 | 18157 ft | 366 kts | 112° |
| 2026-04-23 13:38 | 45.57318 | 9.43892 | 18703 ft | 369 kts | 112° |
| 2026-04-23 13:38 | 45.56205 | 9.47201 | 19228 ft | 371 kts | 112° |
| 2026-04-23 13:39 | 45.55089 | 9.50530 | 19751 ft | 373 kts | 112° |
| 2026-04-23 13:39 | 45.53967 | 9.53882 | 20277 ft | 375 kts | 112° |
| 2026-04-23 13:39 | 45.52839 | 9.57250 | 20781 ft | 378 kts | 112° |
| 2026-04-23 13:39 | 45.51701 | 9.60641 | 21284 ft | 380 kts | 112° |
| 2026-04-23 13:40 | 45.50554 | 9.64050 | 21788 ft | 382 kts | 112° |
| 2026-04-23 13:40 | 45.49398 | 9.67476 | 22280 ft | 385 kts | 112° |
| 2026-04-23 13:40 | 45.48234 | 9.70920 | 22772 ft | 387 kts | 112° |
| 2026-04-23 13:40 | 45.47058 | 9.74391 | 23252 ft | 390 kts | 113° |
| 2026-04-23 13:41 | 45.45878 | 9.77877 | 23726 ft | 392 kts | 112° |
| 2026-04-23 13:41 | 45.44689 | 9.81387 | 24153 ft | 394 kts | 112° |
| 2026-04-23 13:41 | 45.43494 | 9.84909 | 24542 ft | 396 kts | 112° |
| 2026-04-23 13:41 | 45.42306 | 9.88399 | 24941 ft | 397 kts | 113° |
| 2026-04-23 13:42 | 45.41097 | 9.91941 | 25337 ft | 399 kts | 113° |
| 2026-04-23 13:42 | 45.39868 | 9.95546 | 25736 ft | 400 kts | 112° |
| 2026-04-23 13:42 | 45.38652 | 9.99113 | 26117 ft | 401 kts | 112° |
| 2026-04-23 13:42 | 45.37432 | 10.02688 | 26503 ft | 403 kts | 112° |
| 2026-04-23 13:43 | 45.36206 | 10.06276 | 26880 ft | 404 kts | 112° |
| 2026-04-23 13:43 | 45.34974 | 10.09873 | 27248 ft | 405 kts | 112° |
| 2026-04-23 13:43 | 45.33735 | 10.13483 | 27623 ft | 407 kts | 112° |
| 2026-04-23 13:43 | 45.32493 | 10.17103 | 27991 ft | 408 kts | 112° |
| 2026-04-23 13:44 | 45.31262 | 10.20685 | 28358 ft | 410 kts | 112° |
| 2026-04-23 13:44 | 45.30007 | 10.24330 | 28699 ft | 412 kts | 112° |
| 2026-04-23 13:44 | 45.28743 | 10.27990 | 29047 ft | 413 kts | 112° |
| 2026-04-23 13:44 | 45.27473 | 10.31659 | 29384 ft | 415 kts | 112° |
| 2026-04-23 13:45 | 45.26180 | 10.35392 | 29734 ft | 417 kts | 112° |
| 2026-04-23 13:45 | 45.24917 | 10.39039 | 30044 ft | 418 kts | 112° |
| 2026-04-23 13:45 | 45.23632 | 10.42747 | 30336 ft | 420 kts | 112° |
| 2026-04-23 13:45 | 45.22341 | 10.46471 | 30600 ft | 421 kts | 112° |
| 2026-04-23 13:46 | 45.21042 | 10.50209 | 30820 ft | 424 kts | 112° |
| 2026-04-23 13:46 | 45.19735 | 10.53964 | 31047 ft | 425 kts | 112° |
| 2026-04-23 13:46 | 45.18421 | 10.57730 | 31287 ft | 427 kts | 112° |
| 2026-04-23 13:46 | 45.17101 | 10.61497 | 31615 ft | 426 kts | 112° |
| 2026-04-23 13:47 | 45.15784 | 10.65254 | 31949 ft | 425 kts | 112° |
| 2026-04-23 13:47 | 45.14469 | 10.69002 | 32280 ft | 425 kts | 112° |
| 2026-04-23 13:47 | 45.13155 | 10.72747 | 32614 ft | 424 kts | 112° |
| 2026-04-23 13:47 | 45.11843 | 10.76484 | 32930 ft | 423 kts | 112° |
| 2026-04-23 13:48 | 45.10534 | 10.80212 | 33264 ft | 423 kts | 112° |
| 2026-04-23 13:48 | 45.09223 | 10.83943 | 33527 ft | 424 kts | 112° |
| 2026-04-23 13:48 | 45.07908 | 10.87674 | 33819 ft | 424 kts | 112° |
| 2026-04-23 13:48 | 45.06592 | 10.91403 | 34131 ft | 424 kts | 112° |
| 2026-04-23 13:49 | 45.05275 | 10.95128 | 34406 ft | 423 kts | 112° |
| 2026-04-23 13:49 | 45.03956 | 10.98851 | 34673 ft | 423 kts | 113° |
| 2026-04-23 13:49 | 45.02638 | 11.02564 | 34937 ft | 422 kts | 113° |
| 2026-04-23 13:49 | 45.01319 | 11.06273 | 35161 ft | 423 kts | 113° |
| 2026-04-23 13:50 | 45.00004 | 11.09970 | 35220 ft | 418 kts | 113° |
| 2026-04-23 13:50 | 44.97401 | 11.17270 | 35244 ft | 415 kts | 113° |
| 2026-04-23 13:51 | 44.94810 | 11.24531 | 35247 ft | 414 kts | 113° |
| 2026-04-23 13:51 | 44.92210 | 11.31789 | 35247 ft | 414 kts | 113° |
| 2026-04-23 13:52 | 44.89613 | 11.39035 | 35245 ft | 414 kts | 113° |
| 2026-04-23 13:52 | 44.87005 | 11.46281 | 35250 ft | 414 kts | 113° |
| 2026-04-23 13:53 | 44.84406 | 11.53465 | 35255 ft | 414 kts | 113° |
| 2026-04-23 13:53 | 44.81739 | 11.60672 | 35248 ft | 417 kts | 118° |
| 2026-04-23 13:54 | 44.78113 | 11.67110 | 35255 ft | 422 kts | 127° |
| 2026-04-23 13:54 | 44.74282 | 11.73367 | 35251 ft | 422 kts | 126° |
| 2026-04-23 13:55 | 44.70459 | 11.79628 | 35245 ft | 422 kts | 126° |
| 2026-04-23 13:55 | 44.66636 | 11.85882 | 35261 ft | 422 kts | 126° |
| 2026-04-23 13:56 | 44.62801 | 11.92118 | 35245 ft | 422 kts | 126° |
| 2026-04-23 13:56 | 44.58963 | 11.98337 | 35242 ft | 421 kts | 126° |
| 2026-04-23 13:57 | 44.55126 | 12.04546 | 35244 ft | 421 kts | 126° |
| 2026-04-23 13:57 | 44.51285 | 12.10750 | 35254 ft | 421 kts | 126° |
| 2026-04-23 13:58 | 44.47440 | 12.16948 | 35252 ft | 422 kts | 126° |
| 2026-04-23 13:58 | 44.43591 | 12.23147 | 35237 ft | 422 kts | 126° |
| 2026-04-23 13:59 | 44.39736 | 12.29341 | 35234 ft | 422 kts | 126° |
| 2026-04-23 13:59 | 44.35870 | 12.35528 | 35235 ft | 423 kts | 127° |
| 2026-04-23 14:00 | 44.32650 | 12.40667 | 35235 ft | 423 kts | 127° |
| 2026-04-23 14:00 | 44.28114 | 12.47889 | 35252 ft | 423 kts | 127° |
| 2026-04-23 14:01 | 44.24237 | 12.54059 | 35250 ft | 423 kts | 126° |
| 2026-04-23 14:01 | 44.20358 | 12.60235 | 35231 ft | 423 kts | 127° |
| 2026-04-23 14:02 | 44.16472 | 12.66398 | 35226 ft | 423 kts | 127° |
| 2026-04-23 14:02 | 44.12579 | 12.72550 | 35224 ft | 423 kts | 127° |
| 2026-04-23 14:03 | 44.08682 | 12.78689 | 35229 ft | 423 kts | 127° |
| 2026-04-23 14:03 | 44.04786 | 12.84839 | 35221 ft | 424 kts | 127° |
| 2026-04-23 14:04 | 44.00882 | 12.90988 | 35220 ft | 424 kts | 127° |
| 2026-04-23 14:04 | 43.96964 | 12.97127 | 35220 ft | 425 kts | 127° |
| 2026-04-23 14:05 | 43.93036 | 13.03257 | 35215 ft | 425 kts | 127° |
| 2026-04-23 14:05 | 43.89107 | 13.09386 | 35217 ft | 425 kts | 127° |
| 2026-04-23 14:06 | 43.85180 | 13.15511 | 35245 ft | 425 kts | 127° |
| 2026-04-23 14:06 | 43.81271 | 13.21585 | 35238 ft | 425 kts | 127° |
| 2026-04-23 14:07 | 43.77335 | 13.27683 | 35232 ft | 425 kts | 127° |
| 2026-04-23 14:07 | 43.71432 | 13.36811 | 35227 ft | 425 kts | 127° |
| 2026-04-23 14:08 | 43.67488 | 13.42889 | 35224 ft | 425 kts | 127° |
| 2026-04-23 14:08 | 43.63543 | 13.48961 | 35223 ft | 425 kts | 127° |
| 2026-04-23 14:09 | 43.59593 | 13.55026 | 35252 ft | 425 kts | 127° |
| 2026-04-23 14:09 | 43.55640 | 13.61087 | 35239 ft | 425 kts | 127° |
| 2026-04-23 14:10 | 43.51690 | 13.67137 | 35227 ft | 424 kts | 127° |
| 2026-04-23 14:10 | 43.47733 | 13.73170 | 35224 ft | 424 kts | 127° |
| 2026-04-23 14:11 | 43.43770 | 13.79196 | 35218 ft | 425 kts | 127° |
| 2026-04-23 14:11 | 43.39808 | 13.85220 | 35217 ft | 425 kts | 127° |
| 2026-04-23 14:12 | 43.35844 | 13.91242 | 35240 ft | 425 kts | 127° |
| 2026-04-23 14:12 | 43.31873 | 13.97247 | 35229 ft | 424 kts | 127° |
| 2026-04-23 14:13 | 43.27905 | 14.03246 | 35226 ft | 424 kts | 127° |
| 2026-04-23 14:13 | 43.23933 | 14.09234 | 35219 ft | 424 kts | 127° |
| 2026-04-23 14:14 | 43.19957 | 14.15205 | 35210 ft | 424 kts | 127° |
| 2026-04-23 14:14 | 43.15984 | 14.21175 | 35205 ft | 424 kts | 127° |
| 2026-04-23 14:15 | 43.12032 | 14.27095 | 35227 ft | 424 kts | 127° |
| 2026-04-23 14:15 | 43.08049 | 14.33042 | 35220 ft | 423 kts | 127° |
| 2026-04-23 14:16 | 43.04071 | 14.38979 | 35207 ft | 423 kts | 127° |
| 2026-04-23 14:16 | 43.00090 | 14.44905 | 35198 ft | 423 kts | 127° |
| 2026-04-23 14:17 | 42.96110 | 14.50821 | 35197 ft | 423 kts | 127° |
| 2026-04-23 14:17 | 42.92125 | 14.56729 | 35191 ft | 423 kts | 127° |
| 2026-04-23 14:18 | 42.88138 | 14.62620 | 35208 ft | 422 kts | 127° |
| 2026-04-23 14:18 | 42.84156 | 14.68495 | 35196 ft | 421 kts | 127° |
| 2026-04-23 14:19 | 42.80176 | 14.74354 | 35190 ft | 421 kts | 127° |
| 2026-04-23 14:19 | 42.76200 | 14.80204 | 35189 ft | 421 kts | 127° |
| 2026-04-23 14:20 | 42.72222 | 14.86052 | 35187 ft | 421 kts | 127° |
| 2026-04-23 14:20 | 42.68237 | 14.91891 | 35192 ft | 421 kts | 127° |
| 2026-04-23 14:21 | 42.64246 | 14.97715 | 35204 ft | 421 kts | 128° |
| 2026-04-23 14:21 | 42.60257 | 15.03528 | 35201 ft | 420 kts | 128° |
| 2026-04-23 14:22 | 42.56945 | 15.08349 | 35192 ft | 420 kts | 128° |
| 2026-04-23 14:22 | 42.54956 | 15.11238 | 34978 ft | 416 kts | 128° |
| 2026-04-23 14:22 | 42.52990 | 15.14084 | 34601 ft | 411 kts | 127° |
| 2026-04-23 14:23 | 42.51041 | 15.16904 | 34100 ft | 408 kts | 127° |
| 2026-04-23 14:23 | 42.49112 | 15.19707 | 33570 ft | 405 kts | 127° |
| 2026-04-23 14:23 | 42.47203 | 15.22482 | 33089 ft | 401 kts | 127° |
| 2026-04-23 14:23 | 42.45308 | 15.25229 | 32613 ft | 397 kts | 127° |
| 2026-04-23 14:24 | 42.43431 | 15.27947 | 32144 ft | 393 kts | 127° |
| 2026-04-23 14:24 | 42.41568 | 15.30634 | 31689 ft | 390 kts | 127° |
| 2026-04-23 14:24 | 42.39715 | 15.33301 | 31224 ft | 387 kts | 127° |
| 2026-04-23 14:24 | 42.37877 | 15.35940 | 30778 ft | 384 kts | 126° |
| 2026-04-23 14:25 | 42.36057 | 15.38558 | 30334 ft | 380 kts | 126° |
| 2026-04-23 14:25 | 42.34256 | 15.41154 | 29858 ft | 377 kts | 126° |
| 2026-04-23 14:25 | 42.32475 | 15.43716 | 29434 ft | 371 kts | 126° |
| 2026-04-23 14:25 | 42.30691 | 15.46209 | 29026 ft | 369 kts | 130° |
| 2026-04-23 14:26 | 42.28667 | 15.48357 | 28610 ft | 372 kts | 140° |
| 2026-04-23 14:26 | 42.26474 | 15.50200 | 28192 ft | 369 kts | 141° |
| 2026-04-23 14:26 | 42.24305 | 15.52010 | 27776 ft | 365 kts | 141° |
| 2026-04-23 14:26 | 42.22154 | 15.53804 | 27364 ft | 361 kts | 141° |
| 2026-04-23 14:27 | 42.20028 | 15.55582 | 26956 ft | 358 kts | 141° |
| 2026-04-23 14:27 | 42.17917 | 15.57350 | 26544 ft | 355 kts | 140° |
| 2026-04-23 14:27 | 42.15826 | 15.59102 | 26118 ft | 353 kts | 140° |
| 2026-04-23 14:27 | 42.13744 | 15.60846 | 25705 ft | 351 kts | 140° |
| 2026-04-23 14:28 | 42.11676 | 15.62579 | 25274 ft | 350 kts | 140° |
| 2026-04-23 14:28 | 42.09613 | 15.64305 | 24858 ft | 349 kts | 140° |
| 2026-04-23 14:28 | 42.07553 | 15.66028 | 24408 ft | 348 kts | 140° |
| 2026-04-23 14:28 | 42.05498 | 15.67748 | 23965 ft | 348 kts | 140° |
| 2026-04-23 14:29 | 42.03446 | 15.69464 | 23491 ft | 347 kts | 140° |
| 2026-04-23 14:29 | 42.01396 | 15.71176 | 23031 ft | 345 kts | 141° |
| 2026-04-23 14:29 | 41.99361 | 15.72868 | 22602 ft | 343 kts | 141° |
| 2026-04-23 14:29 | 41.97335 | 15.74546 | 22179 ft | 341 kts | 141° |
| 2026-04-23 14:30 | 41.95322 | 15.76216 | 21764 ft | 339 kts | 141° |
| 2026-04-23 14:30 | 41.93323 | 15.77875 | 21346 ft | 337 kts | 141° |
| 2026-04-23 14:30 | 41.91332 | 15.79526 | 20945 ft | 336 kts | 141° |
| 2026-04-23 14:30 | 41.89344 | 15.81175 | 20527 ft | 335 kts | 141° |
| 2026-04-23 14:31 | 41.87363 | 15.82817 | 20124 ft | 334 kts | 141° |
| 2026-04-23 14:31 | 41.85383 | 15.84456 | 19712 ft | 334 kts | 141° |
| 2026-04-23 14:31 | 41.83414 | 15.86081 | 19324 ft | 332 kts | 141° |
| 2026-04-23 14:31 | 41.81445 | 15.87705 | 18926 ft | 332 kts | 142° |
| 2026-04-23 14:32 | 41.79477 | 15.89335 | 18530 ft | 333 kts | 142° |
| 2026-04-23 14:32 | 41.77506 | 15.90967 | 18090 ft | 334 kts | 142° |
| 2026-04-23 14:32 | 41.75534 | 15.92596 | 17688 ft | 332 kts | 142° |
| 2026-04-23 14:32 | 41.73569 | 15.94213 | 17304 ft | 330 kts | 142° |
| 2026-04-23 14:33 | 41.71616 | 15.95819 | 16924 ft | 329 kts | 142° |
| 2026-04-23 14:33 | 41.69664 | 15.97430 | 16534 ft | 329 kts | 142° |
| 2026-04-23 14:33 | 41.67717 | 15.99032 | 16159 ft | 328 kts | 142° |
| 2026-04-23 14:33 | 41.65772 | 16.00630 | 15787 ft | 328 kts | 143° |
| 2026-04-23 14:34 | 41.63829 | 16.02225 | 15411 ft | 327 kts | 143° |
| 2026-04-23 14:34 | 41.61917 | 16.03795 | 15036 ft | 327 kts | 143° |
| 2026-04-23 14:34 | 41.59986 | 16.05383 | 14664 ft | 326 kts | 143° |
| 2026-04-23 14:34 | 41.58055 | 16.06968 | 14285 ft | 326 kts | 143° |
| 2026-04-23 14:35 | 41.56124 | 16.08547 | 13907 ft | 325 kts | 143° |
| 2026-04-23 14:35 | 41.54199 | 16.10124 | 13502 ft | 324 kts | 144° |
| 2026-04-23 14:35 | 41.52281 | 16.11691 | 13119 ft | 322 kts | 144° |
| 2026-04-23 14:35 | 41.50373 | 16.13247 | 12744 ft | 320 kts | 144° |
| 2026-04-23 14:36 | 41.48476 | 16.14794 | 12366 ft | 318 kts | 144° |
| 2026-04-23 14:36 | 41.46590 | 16.16332 | 11979 ft | 317 kts | 144° |
| 2026-04-23 14:36 | 41.44716 | 16.17864 | 11599 ft | 316 kts | 144° |
| 2026-04-23 14:36 | 41.42846 | 16.19391 | 11215 ft | 315 kts | 145° |
| 2026-04-23 14:37 | 41.40982 | 16.20911 | 10821 ft | 314 kts | 145° |
| 2026-04-23 14:37 | 41.39126 | 16.22425 | 10440 ft | 312 kts | 146° |
| 2026-04-23 14:37 | 41.37297 | 16.23909 | 10294 ft | 303 kts | 146° |
| 2026-04-23 14:37 | 41.35509 | 16.25356 | 9978 ft | 300 kts | 146° |
| 2026-04-23 14:38 | 41.33733 | 16.26800 | 9593 ft | 298 kts | 146° |
| 2026-04-23 14:38 | 41.31968 | 16.28237 | 9211 ft | 297 kts | 146° |
| 2026-04-23 14:38 | 41.30210 | 16.29667 | 8842 ft | 295 kts | 146° |
| 2026-04-23 14:38 | 41.28460 | 16.31088 | 8464 ft | 294 kts | 146° |
| 2026-04-23 14:39 | 41.26720 | 16.32497 | 8083 ft | 292 kts | 146° |
| 2026-04-23 14:39 | 41.24988 | 16.33897 | 7714 ft | 291 kts | 146° |
| 2026-04-23 14:39 | 41.23265 | 16.35289 | 7371 ft | 289 kts | 145° |
| 2026-04-23 14:39 | 41.21553 | 16.36671 | 6889 ft | 291 kts | 145° |
| 2026-04-23 14:40 | 41.19811 | 16.38082 | 6481 ft | 291 kts | 145° |
| 2026-04-23 14:40 | 41.18107 | 16.39387 | 6316 ft | 283 kts | 153° |
| 2026-04-23 14:40 | 41.16202 | 16.39794 | 6195 ft | 277 kts | 186° |
| 2026-04-23 14:40 | 41.14474 | 16.38865 | 6092 ft | 265 kts | 220° |
| 2026-04-23 14:41 | 41.13398 | 16.37007 | 6005 ft | 249 kts | 251° |
| 2026-04-23 14:41 | 41.12785 | 16.34881 | 5903 ft | 246 kts | 253° |
| 2026-04-23 14:41 | 41.12186 | 16.32774 | 5813 ft | 242 kts | 254° |
| 2026-04-23 14:41 | 41.11593 | 16.30691 | 5727 ft | 240 kts | 254° |
| 2026-04-23 14:42 | 41.11003 | 16.28626 | 5644 ft | 239 kts | 253° |
| 2026-04-23 14:42 | 41.10411 | 16.26563 | 5468 ft | 238 kts | 253° |
| 2026-04-23 14:42 | 41.09708 | 16.24585 | 5308 ft | 239 kts | 237° |
| 2026-04-23 14:42 | 41.08437 | 16.23141 | 5249 ft | 246 kts | 207° |
| 2026-04-23 14:43 | 41.06772 | 16.22651 | 5181 ft | 249 kts | 176° |
| 2026-04-23 14:43 | 41.05128 | 16.23282 | 5134 ft | 248 kts | 145° |
| 2026-04-23 14:43 | 41.03942 | 16.24859 | 5082 ft | 241 kts | 115° |
| 2026-04-23 14:43 | 41.03451 | 16.26909 | 5044 ft | 231 kts | 91° |
| 2026-04-23 14:44 | 41.03259 | 16.29019 | 4990 ft | 231 kts | 92° |
| 2026-04-23 14:44 | 41.03061 | 16.31143 | 4936 ft | 233 kts | 91° |
| 2026-04-23 14:44 | 41.02859 | 16.33273 | 4886 ft | 233 kts | 93° |
| 2026-04-23 14:44 | 41.02683 | 16.35405 | 4847 ft | 231 kts | 87° |
| 2026-04-23 14:45 | 41.02868 | 16.37462 | 4796 ft | 221 kts | 69° |
| 2026-04-23 14:45 | 41.03393 | 16.39367 | 4745 ft | 220 kts | 65° |
| 2026-04-23 14:45 | 41.03936 | 16.41252 | 4695 ft | 219 kts | 64° |
| 2026-04-23 14:45 | 41.04476 | 16.43141 | 4642 ft | 221 kts | 65° |
| 2026-04-23 14:46 | 41.05019 | 16.45043 | 4593 ft | 219 kts | 66° |
| 2026-04-23 14:46 | 41.05535 | 16.46866 | 4502 ft | 210 kts | 64° |
| 2026-04-23 14:46 | 41.06045 | 16.48653 | 4297 ft | 206 kts | 66° |
| 2026-04-23 14:46 | 41.06553 | 16.50427 | 4033 ft | 207 kts | 64° |
| 2026-04-23 14:47 | 41.07064 | 16.52211 | 3753 ft | 208 kts | 64° |
| 2026-04-23 14:47 | 41.07577 | 16.54004 | 3472 ft | 207 kts | 63° |
| 2026-04-23 14:47 | 41.08076 | 16.55757 | 3213 ft | 198 kts | 64° |
| 2026-04-23 14:47 | 41.08549 | 16.57417 | 2874 ft | 189 kts | 63° |
| 2026-04-23 14:48 | 41.09007 | 16.59022 | 2611 ft | 184 kts | 63° |
| 2026-04-23 14:48 | 41.09455 | 16.60592 | 2358 ft | 180 kts | 64° |
| 2026-04-23 14:48 | 41.09895 | 16.62133 | 2123 ft | 178 kts | 62° |
| 2026-04-23 14:48 | 41.10329 | 16.63658 | 1891 ft | 173 kts | 61° |
| 2026-04-23 14:49 | 41.10738 | 16.65100 | 1645 ft | 161 kts | 64° |
| 2026-04-23 14:49 | 41.11115 | 16.66432 | 1449 ft | 146 kts | 63° |
| 2026-04-23 14:49 | 41.11468 | 16.67669 | 1248 ft | 142 kts | 61° |
| 2026-04-23 14:49 | 41.11815 | 16.68887 | 1051 ft | 140 kts | 61° |
| 2026-04-23 14:50 | 41.12161 | 16.70102 | 854 ft | 140 kts | 62° |
| 2026-04-23 14:50 | 41.12503 | 16.71303 | 668 ft | 140 kts | 64° |
| 2026-04-23 14:50 | 41.12844 | 16.72515 | 476 ft | 139 kts | 63° |
| 2026-04-23 14:50 | 41.13186 | 16.73717 | 301 ft | 140 kts | 62° |
| 2026-04-23 14:51 | 41.13526 | 16.74913 | 156 ft | 137 kts | 66° |
| 2026-04-23 14:51 | 41.13813 | 16.75918 | 152 ft | 93 kts | 69° |
| 2026-04-23 14:51 | 41.13974 | 16.76495 | 148 ft | 30 kts | 69° |
| 2026-04-23 14:51 | 41.13983 | 16.76673 | 150 ft | 11 kts | 113° |
| 2026-04-23 14:52 | 41.13953 | 16.76720 | 154 ft | 4 kts | 180° |
| 2026-04-23 14:52 | 41.13872 | 16.76658 | 157 ft | 14 kts | 213° |
| 2026-04-23 14:52 | 41.13806 | 16.76572 | 158 ft | 13 kts | 225° |
| 2026-04-23 14:52 | 41.13739 | 16.76557 | 158 ft | 8 kts | 178° |
| 2026-04-23 14:53 | 41.13685 | 16.76540 | 158 ft | 10 kts | 199° |
| 2026-04-23 14:53 | 41.13638 | 16.76464 | 158 ft | 11 kts | 248° |
| 2026-04-23 14:53 | 41.13613 | 16.76379 | 158 ft | 9 kts | 248° |
| 2026-04-23 14:53 | 41.13580 | 16.76322 | 159 ft | 7 kts | 195° |
| 2026-04-23 14:54 | 41.13538 | 16.76339 | 159 ft | 6 kts | 158° |
| 2026-04-23 14:54 | 41.13525 | 16.76345 | 159 ft | 1 kts | 159° |
| 2026-04-23 14:54 | 41.13521 | 16.76347 | 159 ft | 0 kts | 159° |